sensor_id;sensor_type;location;lat;lon;timestamp;pressure;altitude;pressure_sealevel;temperature;humidity
73842;BME280;62184;52.006;5.924;2023-07-16T00:00:13;100090.47;;;23.48;49.63
73842;BME280;62184;52.006;5.924;2023-07-16T00:02:39;100096.34;;;23.43;49.99
73842;BME280;62184;52.006;5.924;2023-07-16T00:05:06;100097.63;;;23.39;49.76
73842;BME280;62184;52.006;5.924;2023-07-16T00:07:34;100097.00;;;23.36;49.37
73842;BME280;62184;52.006;5.924;2023-07-16T00:10:01;100083.22;;;23.28;48.96
73842;BME280;62184;52.006;5.924;2023-07-16T00:12:28;100088.81;;;23.26;48.85
73842;BME280;62184;52.006;5.924;2023-07-16T00:14:54;100090.31;;;23.19;48.50
73842;BME280;62184;52.006;5.924;2023-07-16T00:17:23;100091.00;;;23.11;48.54
73842;BME280;62184;52.006;5.924;2023-07-16T00:19:49;100086.53;;;23.10;48.34
73842;BME280;62184;52.006;5.924;2023-07-16T00:22:16;100099.16;;;23.11;48.24
73842;BME280;62184;52.006;5.924;2023-07-16T00:24:42;100104.09;;;23.17;48.69
73842;BME280;62184;52.006;5.924;2023-07-16T00:27:09;100101.13;;;23.20;48.52
73842;BME280;62184;52.006;5.924;2023-07-16T00:29:35;100108.28;;;23.22;48.93
73842;BME280;62184;52.006;5.924;2023-07-16T00:32:02;100103.31;;;23.27;48.56
73842;BME280;62184;52.006;5.924;2023-07-16T00:34:31;100111.06;;;23.31;48.63
73842;BME280;62184;52.006;5.924;2023-07-16T00:36:58;100097.56;;;23.30;49.19
73842;BME280;62184;52.006;5.924;2023-07-16T00:39:24;100102.16;;;23.29;49.38
73842;BME280;62184;52.006;5.924;2023-07-16T00:41:51;100098.44;;;23.30;49.35
73842;BME280;62184;52.006;5.924;2023-07-16T00:44:17;100098.44;;;23.30;50.00
73842;BME280;62184;52.006;5.924;2023-07-16T00:46:44;100090.13;;;23.32;49.82
73842;BME280;62184;52.006;5.924;2023-07-16T00:49:10;100092.13;;;23.30;49.90
73842;BME280;62184;52.006;5.924;2023-07-16T00:51:40;100103.16;;;23.28;50.31
73842;BME280;62184;52.006;5.924;2023-07-16T00:54:08;100099.84;;;23.25;50.59
73842;BME280;62184;52.006;5.924;2023-07-16T00:56:37;100097.50;;;23.20;50.71
73842;BME280;62184;52.006;5.924;2023-07-16T00:59:04;100095.19;;;23.15;50.79
73842;BME280;62184;52.006;5.924;2023-07-16T01:01:30;100101.91;;;23.11;50.83
73842;BME280;62184;52.006;5.924;2023-07-16T01:03:57;100094.00;;;23.08;51.10
73842;BME280;62184;52.006;5.924;2023-07-16T01:06:30;100083.25;;;23.07;50.80
73842;BME280;62184;52.006;5.924;2023-07-16T01:09:07;100085.78;;;22.99;50.52
73842;BME280;62184;52.006;5.924;2023-07-16T01:11:37;100091.38;;;22.97;49.51
73842;BME280;62184;52.006;5.924;2023-07-16T01:14:06;100093.50;;;22.94;49.03
73842;BME280;62184;52.006;5.924;2023-07-16T01:16:34;100091.50;;;22.96;49.15
73842;BME280;62184;52.006;5.924;2023-07-16T01:19:01;100091.81;;;23.02;48.73
73842;BME280;62184;52.006;5.924;2023-07-16T01:21:32;100085.25;;;23.05;48.45
73842;BME280;62184;52.006;5.924;2023-07-16T01:24:28;100093.09;;;22.98;48.19
73842;BME280;62184;52.006;5.924;2023-07-16T01:27:27;100093.09;;;22.98;48.18
73842;BME280;62184;52.006;5.924;2023-07-16T01:30:15;100084.47;;;22.93;47.73
73842;BME280;62184;52.006;5.924;2023-07-16T01:32:44;100084.75;;;22.90;47.49
73842;BME280;62184;52.006;5.924;2023-07-16T01:35:12;100084.31;;;22.85;47.61
73842;BME280;62184;52.006;5.924;2023-07-16T01:37:41;100094.44;;;22.83;47.50
73842;BME280;62184;52.006;5.924;2023-07-16T01:40:09;100092.00;;;22.80;47.32
73842;BME280;62184;52.006;5.924;2023-07-16T01:42:35;100100.41;;;22.77;47.33
73842;BME280;62184;52.006;5.924;2023-07-16T01:45:02;100104.09;;;22.66;47.15
73842;BME280;62184;52.006;5.924;2023-07-16T01:47:40;100104.03;;;22.57;47.30
73842;BME280;62184;52.006;5.924;2023-07-16T01:50:16;100093.38;;;22.54;47.08
73842;BME280;62184;52.006;5.924;2023-07-16T01:52:42;100095.13;;;22.55;46.97
73842;BME280;62184;52.006;5.924;2023-07-16T01:55:09;100094.25;;;22.54;46.79
73842;BME280;62184;52.006;5.924;2023-07-16T01:57:35;100087.94;;;22.54;46.74
73842;BME280;62184;52.006;5.924;2023-07-16T02:00:02;100084.50;;;22.52;46.74
73842;BME280;62184;52.006;5.924;2023-07-16T02:02:29;100089.97;;;22.52;46.98
73842;BME280;62184;52.006;5.924;2023-07-16T02:04:58;100090.44;;;22.45;46.65
73842;BME280;62184;52.006;5.924;2023-07-16T02:07:25;100089.25;;;22.38;46.72
73842;BME280;62184;52.006;5.924;2023-07-16T02:09:51;100081.47;;;22.34;47.09
73842;BME280;62184;52.006;5.924;2023-07-16T02:12:18;100100.78;;;22.31;46.71
73842;BME280;62184;52.006;5.924;2023-07-16T02:14:44;100091.00;;;22.28;46.67
73842;BME280;62184;52.006;5.924;2023-07-16T02:17:11;100098.31;;;22.28;46.75
73842;BME280;62184;52.006;5.924;2023-07-16T02:19:37;100092.88;;;22.28;47.14
73842;BME280;62184;52.006;5.924;2023-07-16T02:22:07;100086.84;;;22.24;46.87
73842;BME280;62184;52.006;5.924;2023-07-16T02:24:34;100094.28;;;22.22;46.96
73842;BME280;62184;52.006;5.924;2023-07-16T02:27:01;100096.75;;;22.25;47.23
73842;BME280;62184;52.006;5.924;2023-07-16T02:29:28;100095.47;;;22.29;46.79
73842;BME280;62184;52.006;5.924;2023-07-16T02:31:54;100099.47;;;22.25;47.07
73842;BME280;62184;52.006;5.924;2023-07-16T02:34:20;100104.16;;;22.23;47.04
73842;BME280;62184;52.006;5.924;2023-07-16T02:36:47;100113.09;;;22.14;47.03
73842;BME280;62184;52.006;5.924;2023-07-16T02:39:16;100114.34;;;22.10;46.98
73842;BME280;62184;52.006;5.924;2023-07-16T02:41:42;100110.03;;;22.07;47.14
73842;BME280;62184;52.006;5.924;2023-07-16T02:44:09;100119.06;;;22.08;47.34
73842;BME280;62184;52.006;5.924;2023-07-16T02:46:35;100115.59;;;22.06;47.05
73842;BME280;62184;52.006;5.924;2023-07-16T02:49:03;100110.41;;;22.03;47.44
73842;BME280;62184;52.006;5.924;2023-07-16T02:51:29;100114.97;;;22.02;47.51
73842;BME280;62184;52.006;5.924;2023-07-16T02:53:56;100111.28;;;22.03;47.30
73842;BME280;62184;52.006;5.924;2023-07-16T02:56:25;100112.41;;;22.01;47.67
73842;BME280;62184;52.006;5.924;2023-07-16T02:58:51;100108.22;;;21.97;47.48
73842;BME280;62184;52.006;5.924;2023-07-16T03:01:18;100119.34;;;21.94;47.60
73842;BME280;62184;52.006;5.924;2023-07-16T03:03:44;100103.03;;;21.94;47.73
73842;BME280;62184;52.006;5.924;2023-07-16T03:06:11;100103.88;;;21.94;47.95
73842;BME280;62184;52.006;5.924;2023-07-16T03:08:37;100103.19;;;21.92;48.42
73842;BME280;62184;52.006;5.924;2023-07-16T03:11:04;100103.28;;;21.91;48.39
73842;BME280;62184;52.006;5.924;2023-07-16T03:13:33;100108.00;;;21.89;48.81
73842;BME280;62184;52.006;5.924;2023-07-16T03:15:59;100104.53;;;21.87;49.03
73842;BME280;62184;52.006;5.924;2023-07-16T03:18:28;100100.81;;;21.88;49.00
73842;BME280;62184;52.006;5.924;2023-07-16T03:20:55;100107.47;;;21.95;49.03
73842;BME280;62184;52.006;5.924;2023-07-16T03:23:22;100111.78;;;21.97;49.56
73842;BME280;62184;52.006;5.924;2023-07-16T03:25:49;100119.09;;;21.97;49.30
73842;BME280;62184;52.006;5.924;2023-07-16T03:28:16;100126.50;;;21.95;50.17
73842;BME280;62184;52.006;5.924;2023-07-16T03:30:48;100123.19;;;21.91;50.37
73842;BME280;62184;52.006;5.924;2023-07-16T03:33:16;100122.44;;;21.89;50.63
73842;BME280;62184;52.006;5.924;2023-07-16T03:35:43;100127.16;;;21.87;50.37
73842;BME280;62184;52.006;5.924;2023-07-16T03:38:10;100127.25;;;21.86;50.43
73842;BME280;62184;52.006;5.924;2023-07-16T03:40:37;100139.75;;;21.88;50.28
73842;BME280;62184;52.006;5.924;2023-07-16T03:43:03;100131.47;;;21.90;49.93
73842;BME280;62184;52.006;5.924;2023-07-16T03:45:30;100137.16;;;21.87;49.55
73842;BME280;62184;52.006;5.924;2023-07-16T03:47:59;100143.97;;;21.92;49.32
73842;BME280;62184;52.006;5.924;2023-07-16T03:50:26;100140.09;;;21.95;49.33
73842;BME280;62184;52.006;5.924;2023-07-16T03:52:52;100148.03;;;21.98;48.93
73842;BME280;62184;52.006;5.924;2023-07-16T03:55:19;100146.03;;;22.00;48.76
73842;BME280;62184;52.006;5.924;2023-07-16T03:57:45;100152.81;;;22.05;49.08
73842;BME280;62184;52.006;5.924;2023-07-16T04:00:12;100154.44;;;22.08;48.39
73842;BME280;62184;52.006;5.924;2023-07-16T04:02:39;100152.81;;;22.05;48.62
73842;BME280;62184;52.006;5.924;2023-07-16T04:05:09;100157.38;;;22.16;48.48
73842;BME280;62184;52.006;5.924;2023-07-16T04:07:36;100149.53;;;22.23;47.78
73842;BME280;62184;52.006;5.924;2023-07-16T04:10:03;100154.34;;;22.30;47.08
73842;BME280;62184;52.006;5.924;2023-07-16T04:12:30;100154.97;;;22.34;47.45
73842;BME280;62184;52.006;5.924;2023-07-16T04:14:58;100157.88;;;22.42;47.57
73842;BME280;62184;52.006;5.924;2023-07-16T04:17:25;100160.22;;;22.46;47.59
73842;BME280;62184;52.006;5.924;2023-07-16T04:19:52;100162.19;;;22.44;47.82
73842;BME280;62184;52.006;5.924;2023-07-16T04:22:21;100170.34;;;22.44;47.66
73842;BME280;62184;52.006;5.924;2023-07-16T04:24:48;100161.72;;;22.39;47.92
73842;BME280;62184;52.006;5.924;2023-07-16T04:27:14;100167.41;;;22.36;48.83
73842;BME280;62184;52.006;5.924;2023-07-16T04:29:41;100169.44;;;22.34;49.15
73842;BME280;62184;52.006;5.924;2023-07-16T04:32:07;100165.69;;;22.35;48.71
73842;BME280;62184;52.006;5.924;2023-07-16T04:34:34;100178.19;;;22.38;48.76
73842;BME280;62184;52.006;5.924;2023-07-16T04:37:00;100196.00;;;22.42;49.06
73842;BME280;62184;52.006;5.924;2023-07-16T04:39:29;100184.38;;;22.40;48.74
73842;BME280;62184;52.006;5.924;2023-07-16T04:41:56;100180.78;;;22.39;48.61
73842;BME280;62184;52.006;5.924;2023-07-16T04:44:22;100184.25;;;22.41;48.69
73842;BME280;62184;52.006;5.924;2023-07-16T04:46:48;100193.91;;;22.34;48.45
73842;BME280;62184;52.006;5.924;2023-07-16T04:49:15;100191.31;;;22.33;48.05
73842;BME280;62184;52.006;5.924;2023-07-16T04:51:41;100195.41;;;22.27;47.86
73842;BME280;62184;52.006;5.924;2023-07-16T04:54:08;100190.69;;;22.29;47.49
73842;BME280;62184;52.006;5.924;2023-07-16T04:56:37;100194.63;;;22.36;47.38
73842;BME280;62184;52.006;5.924;2023-07-16T04:59:04;100199.56;;;22.42;46.40
73842;BME280;62184;52.006;5.924;2023-07-16T05:01:30;100205.41;;;22.49;46.01
73842;BME280;62184;52.006;5.924;2023-07-16T05:03:57;100201.78;;;22.60;46.06
73842;BME280;62184;52.006;5.924;2023-07-16T05:06:23;100200.13;;;22.68;45.28
73842;BME280;62184;52.006;5.924;2023-07-16T05:08:49;100214.44;;;22.70;44.89
73842;BME280;62184;52.006;5.924;2023-07-16T05:11:16;100210.16;;;22.68;44.83
73842;BME280;62184;52.006;5.924;2023-07-16T05:13:45;100211.91;;;22.58;45.00
73842;BME280;62184;52.006;5.924;2023-07-16T05:16:11;100220.47;;;22.53;44.73
73842;BME280;62184;52.006;5.924;2023-07-16T05:18:38;100228.25;;;22.46;45.13
73842;BME280;62184;52.006;5.924;2023-07-16T05:21:04;100219.88;;;22.38;45.14
73842;BME280;62184;52.006;5.924;2023-07-16T05:23:31;100237.22;;;22.26;45.25
73842;BME280;62184;52.006;5.924;2023-07-16T05:25:57;100229.31;;;22.23;44.92
73842;BME280;62184;52.006;5.924;2023-07-16T05:28:24;100236.97;;;22.18;45.28
73842;BME280;62184;52.006;5.924;2023-07-16T05:31:00;100232.41;;;22.19;45.41
73842;BME280;62184;52.006;5.924;2023-07-16T05:33:27;100235.84;;;22.21;44.79
73842;BME280;62184;52.006;5.924;2023-07-16T05:35:53;100245.28;;;22.17;45.13
73842;BME280;62184;52.006;5.924;2023-07-16T05:38:20;100240.19;;;22.23;44.89
73842;BME280;62184;52.006;5.924;2023-07-16T05:40:49;100251.81;;;22.25;45.24
73842;BME280;62184;52.006;5.924;2023-07-16T05:43:16;100256.00;;;22.29;44.83
73842;BME280;62184;52.006;5.924;2023-07-16T05:45:42;100250.69;;;22.28;44.62
73842;BME280;62184;52.006;5.924;2023-07-16T05:48:12;100251.53;;;22.28;44.60
73842;BME280;62184;52.006;5.924;2023-07-16T05:50:38;100261.06;;;22.34;44.36
73842;BME280;62184;52.006;5.924;2023-07-16T05:53:05;100253.50;;;22.37;44.25
73842;BME280;62184;52.006;5.924;2023-07-16T05:55:31;100257.84;;;22.40;44.57
73842;BME280;62184;52.006;5.924;2023-07-16T05:57:58;100250.41;;;22.42;44.05
73842;BME280;62184;52.006;5.924;2023-07-16T06:00:24;100263.03;;;22.43;43.79
73842;BME280;62184;52.006;5.924;2023-07-16T06:02:51;100260.56;;;22.40;43.76
73842;BME280;62184;52.006;5.924;2023-07-16T06:05:20;100279.50;;;22.41;44.07
73842;BME280;62184;52.006;5.924;2023-07-16T06:07:47;100265.13;;;22.39;43.88
73842;BME280;62184;52.006;5.924;2023-07-16T06:10:14;100266.59;;;22.43;44.01
73842;BME280;62184;52.006;5.924;2023-07-16T06:12:40;100257.97;;;22.38;43.97
73842;BME280;62184;52.006;5.924;2023-07-16T06:15:07;100270.59;;;22.39;43.75
73842;BME280;62184;52.006;5.924;2023-07-16T06:17:35;100265.75;;;22.43;43.71
73842;BME280;62184;52.006;5.924;2023-07-16T06:20:01;100275.38;;;22.47;43.84
73842;BME280;62184;52.006;5.924;2023-07-16T06:22:31;100281.31;;;22.52;44.00
73842;BME280;62184;52.006;5.924;2023-07-16T06:24:58;100276.38;;;22.57;43.53
73842;BME280;62184;52.006;5.924;2023-07-16T06:27:24;100270.66;;;22.60;43.56
73842;BME280;62184;52.006;5.924;2023-07-16T06:29:51;100270.28;;;22.65;43.58
73842;BME280;62184;52.006;5.924;2023-07-16T06:32:17;100286.38;;;22.68;43.24
73842;BME280;62184;52.006;5.924;2023-07-16T06:34:44;100268.66;;;22.73;43.03
73842;BME280;62184;52.006;5.924;2023-07-16T06:37:11;100282.72;;;22.78;43.44
73842;BME280;62184;52.006;5.924;2023-07-16T06:39:40;100287.69;;;22.85;43.25
73842;BME280;62184;52.006;5.924;2023-07-16T06:42:06;100271.16;;;22.97;43.58
73842;BME280;62184;52.006;5.924;2023-07-16T06:44:33;100281.25;;;23.06;42.99
73842;BME280;62184;52.006;5.924;2023-07-16T06:46:59;100279.00;;;23.11;42.65
73842;BME280;62184;52.006;5.924;2023-07-16T06:49:26;100277.75;;;23.15;42.62
73842;BME280;62184;52.006;5.924;2023-07-16T06:51:52;100281.06;;;23.19;42.84
73842;BME280;62184;52.006;5.924;2023-07-16T06:54:19;100281.34;;;23.37;42.47
73842;BME280;62184;52.006;5.924;2023-07-16T06:56:48;100280.97;;;23.41;42.34
73842;BME280;62184;52.006;5.924;2023-07-16T06:59:14;100290.47;;;23.47;42.03
73842;BME280;62184;52.006;5.924;2023-07-16T07:01:41;100293.13;;;23.58;41.71
73842;BME280;62184;52.006;5.924;2023-07-16T07:04:07;100293.19;;;23.68;41.94
73842;BME280;62184;52.006;5.924;2023-07-16T07:06:34;100303.31;;;23.86;41.40
73842;BME280;62184;52.006;5.924;2023-07-16T07:09:00;100292.47;;;23.96;41.55
73842;BME280;62184;52.006;5.924;2023-07-16T07:11:27;100287.06;;;24.06;41.20
73842;BME280;62184;52.006;5.924;2023-07-16T07:13:56;100305.06;;;24.18;41.21
73842;BME280;62184;52.006;5.924;2023-07-16T07:16:22;100316.00;;;24.27;40.85
73842;BME280;62184;52.006;5.924;2023-07-16T07:18:48;100299.09;;;24.33;40.29
73842;BME280;62184;52.006;5.924;2023-07-16T07:21:15;100303.28;;;24.47;40.74
73842;BME280;62184;52.006;5.924;2023-07-16T07:23:42;100299.91;;;24.64;40.60
73842;BME280;62184;52.006;5.924;2023-07-16T07:26:08;100316.88;;;24.78;40.25
73842;BME280;62184;52.006;5.924;2023-07-16T07:28:35;100315.75;;;24.90;39.55
73842;BME280;62184;52.006;5.924;2023-07-16T07:31:04;100310.88;;;24.93;39.46
73842;BME280;62184;52.006;5.924;2023-07-16T07:33:30;100308.56;;;24.98;39.25
73842;BME280;62184;52.006;5.924;2023-07-16T07:35:57;100311.16;;;25.00;39.32
73842;BME280;62184;52.006;5.924;2023-07-16T07:38:23;100318.50;;;25.09;39.24
73842;BME280;62184;52.006;5.924;2023-07-16T07:40:50;100318.63;;;25.17;39.15
73842;BME280;62184;52.006;5.924;2023-07-16T07:43:16;100316.81;;;25.27;39.24
73842;BME280;62184;52.006;5.924;2023-07-16T07:45:43;100315.91;;;25.36;38.80
73842;BME280;62184;52.006;5.924;2023-07-16T07:48:12;100325.09;;;25.45;38.44
73842;BME280;62184;52.006;5.924;2023-07-16T07:50:39;100332.16;;;25.57;38.55
73842;BME280;62184;52.006;5.924;2023-07-16T07:53:05;100330.16;;;25.50;37.90
73842;BME280;62184;52.006;5.924;2023-07-16T07:55:33;100343.22;;;25.56;38.04
73842;BME280;62184;52.006;5.924;2023-07-16T07:57:59;100341.63;;;25.63;38.09
73842;BME280;62184;52.006;5.924;2023-07-16T08:00:26;100360.16;;;25.78;38.16
73842;BME280;62184;52.006;5.924;2023-07-16T08:02:52;100341.47;;;25.93;37.59
73842;BME280;62184;52.006;5.924;2023-07-16T08:05:22;100345.06;;;25.84;37.36
73842;BME280;62184;52.006;5.924;2023-07-16T08:07:49;100345.47;;;25.89;37.55
73842;BME280;62184;52.006;5.924;2023-07-16T08:10:15;100346.75;;;26.04;37.33
73842;BME280;62184;52.006;5.924;2023-07-16T08:12:41;100347.91;;;26.11;37.81
73842;BME280;62184;52.006;5.924;2023-07-16T08:15:10;100344.94;;;26.23;37.54
73842;BME280;62184;52.006;5.924;2023-07-16T08:17:37;100341.41;;;26.40;37.39
73842;BME280;62184;52.006;5.924;2023-07-16T08:20:05;100354.34;;;26.47;37.03
73842;BME280;62184;52.006;5.924;2023-07-16T08:22:35;100356.63;;;26.52;37.01
73842;BME280;62184;52.006;5.924;2023-07-16T08:25:02;100362.09;;;26.62;36.74
73842;BME280;62184;52.006;5.924;2023-07-16T08:27:28;100373.69;;;26.73;36.53
73842;BME280;62184;52.006;5.924;2023-07-16T08:29:55;100370.66;;;26.76;36.38
73842;BME280;62184;52.006;5.924;2023-07-16T08:32:22;100375.72;;;26.71;36.20
73842;BME280;62184;52.006;5.924;2023-07-16T08:34:49;100372.88;;;26.63;36.25
73842;BME280;62184;52.006;5.924;2023-07-16T08:37:15;100383.31;;;26.60;36.46
73842;BME280;62184;52.006;5.924;2023-07-16T08:39:44;100366.16;;;26.48;36.14
73842;BME280;62184;52.006;5.924;2023-07-16T08:42:14;100368.91;;;26.48;36.33
73842;BME280;62184;52.006;5.924;2023-07-16T08:44:41;100370.91;;;26.55;36.49
73842;BME280;62184;52.006;5.924;2023-07-16T08:47:08;100383.94;;;26.71;36.28
73842;BME280;62184;52.006;5.924;2023-07-16T08:49:35;100375.81;;;26.79;36.06
73842;BME280;62184;52.006;5.924;2023-07-16T08:52:05;100376.84;;;26.96;36.04
73842;BME280;62184;52.006;5.924;2023-07-16T08:54:33;100372.41;;;27.13;35.63
73842;BME280;62184;52.006;5.924;2023-07-16T08:57:03;100371.22;;;27.25;35.17
73842;BME280;62184;52.006;5.924;2023-07-16T08:59:30;100381.09;;;27.53;35.52
73842;BME280;62184;52.006;5.924;2023-07-16T09:01:57;100370.00;;;27.81;35.16
73842;BME280;62184;52.006;5.924;2023-07-16T09:04:24;100377.09;;;27.91;34.55
73842;BME280;62184;52.006;5.924;2023-07-16T09:06:50;100377.25;;;27.90;34.13
73842;BME280;62184;52.006;5.924;2023-07-16T09:09:21;100376.97;;;27.93;34.24
73842;BME280;62184;52.006;5.924;2023-07-16T09:11:48;100378.50;;;28.21;34.21
73842;BME280;62184;52.006;5.924;2023-07-16T09:14:19;100368.88;;;28.17;33.55
73842;BME280;62184;52.006;5.924;2023-07-16T09:16:50;100379.75;;;28.01;34.15
73842;BME280;62184;52.006;5.924;2023-07-16T09:19:17;100375.19;;;28.10;34.09
73842;BME280;62184;52.006;5.924;2023-07-16T09:21:48;100383.44;;;28.35;34.10
73842;BME280;62184;52.006;5.924;2023-07-16T09:24:15;100389.47;;;28.47;33.66
73842;BME280;62184;52.006;5.924;2023-07-16T09:26:48;100383.00;;;28.56;33.63
73842;BME280;62184;52.006;5.924;2023-07-16T09:29:15;100393.19;;;28.72;33.84
73842;BME280;62184;52.006;5.924;2023-07-16T09:31:54;100389.22;;;29.08;33.72
73842;BME280;62184;52.006;5.924;2023-07-16T09:34:21;100392.53;;;29.28;32.74
73842;BME280;62184;52.006;5.924;2023-07-16T09:36:48;100390.63;;;29.21;32.66
73842;BME280;62184;52.006;5.924;2023-07-16T09:39:16;100396.78;;;29.14;32.61
73842;BME280;62184;52.006;5.924;2023-07-16T09:41:44;100398.59;;;28.90;32.60
73842;BME280;62184;52.006;5.924;2023-07-16T09:44:12;100407.84;;;28.47;32.89
73842;BME280;62184;52.006;5.924;2023-07-16T09:46:39;100420.69;;;28.12;33.23
73842;BME280;62184;52.006;5.924;2023-07-16T09:49:09;100410.50;;;27.79;33.63
73842;BME280;62184;52.006;5.924;2023-07-16T09:51:37;100411.09;;;27.55;34.14
73842;BME280;62184;52.006;5.924;2023-07-16T09:54:05;100419.31;;;27.37;34.28
73842;BME280;62184;52.006;5.924;2023-07-16T09:56:35;100427.94;;;27.42;34.33
73842;BME280;62184;52.006;5.924;2023-07-16T09:59:07;100436.56;;;27.47;34.40
73842;BME280;62184;52.006;5.924;2023-07-16T10:01:38;100428.09;;;27.41;34.53
73842;BME280;62184;52.006;5.924;2023-07-16T10:04:17;100427.94;;;27.42;34.96
73842;BME280;62184;52.006;5.924;2023-07-16T10:06:52;100425.13;;;27.69;34.74
73842;BME280;62184;52.006;5.924;2023-07-16T10:09:35;100427.16;;;28.03;34.23
73842;BME280;62184;52.006;5.924;2023-07-16T10:12:13;100429.91;;;28.29;34.32
73842;BME280;62184;52.006;5.924;2023-07-16T10:14:42;100419.72;;;28.47;33.68
73842;BME280;62184;52.006;5.924;2023-07-16T10:17:12;100428.41;;;28.68;33.75
73842;BME280;62184;52.006;5.924;2023-07-16T10:19:55;100425.75;;;28.93;33.24
73842;BME280;62184;52.006;5.924;2023-07-16T10:22:33;100433.91;;;29.02;33.03
73842;BME280;62184;52.006;5.924;2023-07-16T10:25:01;100433.97;;;29.18;32.26
73842;BME280;62184;52.006;5.924;2023-07-16T10:27:30;100435.28;;;29.06;32.00
73842;BME280;62184;52.006;5.924;2023-07-16T10:29:58;100441.91;;;28.88;32.67
73842;BME280;62184;52.006;5.924;2023-07-16T10:32:26;100449.25;;;28.79;32.48
73842;BME280;62184;52.006;5.924;2023-07-16T10:34:56;100451.28;;;28.69;32.49
73842;BME280;62184;52.006;5.924;2023-07-16T10:37:25;100462.53;;;28.58;32.41
73842;BME280;62184;52.006;5.924;2023-07-16T10:39:53;100459.53;;;28.43;32.94
73842;BME280;62184;52.006;5.924;2023-07-16T10:42:22;100464.19;;;28.42;33.11
73842;BME280;62184;52.006;5.924;2023-07-16T10:44:49;100456.78;;;28.43;33.22
73842;BME280;62184;52.006;5.924;2023-07-16T10:47:20;100459.03;;;28.48;33.03
73842;BME280;62184;52.006;5.924;2023-07-16T10:49:48;100461.47;;;28.51;33.13
73842;BME280;62184;52.006;5.924;2023-07-16T10:52:18;100473.69;;;28.56;32.96
73842;BME280;62184;52.006;5.924;2023-07-16T10:54:46;100471.44;;;28.52;32.96
73842;BME280;62184;52.006;5.924;2023-07-16T10:57:13;100470.03;;;28.48;33.21
73842;BME280;62184;52.006;5.924;2023-07-16T10:59:39;100474.94;;;28.62;33.10
73842;BME280;62184;52.006;5.924;2023-07-16T11:02:10;100465.91;;;28.77;32.88
73842;BME280;62184;52.006;5.924;2023-07-16T11:04:38;100465.41;;;28.82;32.29
73842;BME280;62184;52.006;5.924;2023-07-16T11:07:07;100470.50;;;28.69;32.52
73842;BME280;62184;52.006;5.924;2023-07-16T11:09:40;100470.69;;;28.41;33.00
73842;BME280;62184;52.006;5.924;2023-07-16T11:12:08;100471.50;;;28.16;33.10
73842;BME280;62184;52.006;5.924;2023-07-16T11:14:36;100482.94;;;28.03;33.71
73842;BME280;62184;52.006;5.924;2023-07-16T11:17:06;100478.13;;;27.88;33.61
73842;BME280;62184;52.006;5.924;2023-07-16T11:19:34;100482.53;;;27.81;33.68
73842;BME280;62184;52.006;5.924;2023-07-16T11:22:02;100477.38;;;27.78;33.89
73842;BME280;62184;52.006;5.924;2023-07-16T11:24:39;100492.53;;;27.72;33.97
73842;BME280;62184;52.006;5.924;2023-07-16T11:27:13;100494.19;;;27.65;34.62
73842;BME280;62184;52.006;5.924;2023-07-16T11:29:40;100497.28;;;27.80;34.56
73842;BME280;62184;52.006;5.924;2023-07-16T11:32:11;100494.84;;;27.94;34.30
73842;BME280;62184;52.006;5.924;2023-07-16T11:34:38;100498.59;;;28.11;34.26
73842;BME280;62184;52.006;5.924;2023-07-16T11:37:08;100506.97;;;28.27;34.17
73842;BME280;62184;52.006;5.924;2023-07-16T11:39:38;100492.88;;;28.48;34.03
73842;BME280;62184;52.006;5.924;2023-07-16T11:42:05;100495.78;;;28.72;33.37
73842;BME280;62184;52.006;5.924;2023-07-16T11:44:33;100504.09;;;28.89;33.29
73842;BME280;62184;52.006;5.924;2023-07-16T11:47:00;100502.28;;;28.97;33.25
73842;BME280;62184;52.006;5.924;2023-07-16T11:49:27;100505.66;;;28.91;33.30
73842;BME280;62184;52.006;5.924;2023-07-16T11:51:54;100522.28;;;28.81;33.29
73842;BME280;62184;52.006;5.924;2023-07-16T11:54:20;100520.81;;;28.61;33.15
73842;BME280;62184;52.006;5.924;2023-07-16T11:56:49;100542.78;;;28.35;33.70
73842;BME280;62184;52.006;5.924;2023-07-16T11:59:16;100532.94;;;28.15;34.39
73842;BME280;62184;52.006;5.924;2023-07-16T12:01:43;100534.06;;;28.04;34.95
73842;BME280;62184;52.006;5.924;2023-07-16T12:04:09;100535.47;;;27.91;35.21
73842;BME280;62184;52.006;5.924;2023-07-16T12:06:35;100536.28;;;28.01;34.96
73842;BME280;62184;52.006;5.924;2023-07-16T12:09:02;100531.84;;;28.26;35.39
73842;BME280;62184;52.006;5.924;2023-07-16T12:11:28;100537.81;;;28.65;34.86
73842;BME280;62184;52.006;5.924;2023-07-16T12:13:57;100520.88;;;28.95;34.01
73842;BME280;62184;52.006;5.924;2023-07-16T12:16:24;100521.78;;;29.12;33.78
73842;BME280;62184;52.006;5.924;2023-07-16T12:18:50;100514.41;;;29.12;34.06
73842;BME280;62184;52.006;5.924;2023-07-16T12:21:17;100530.28;;;29.27;33.10
73842;BME280;62184;52.006;5.924;2023-07-16T12:23:44;100531.31;;;29.34;33.34
73842;BME280;62184;52.006;5.924;2023-07-16T12:26:10;100537.19;;;29.39;33.36
73842;BME280;62184;52.006;5.924;2023-07-16T12:28:38;100539.94;;;29.39;33.25
73842;BME280;62184;52.006;5.924;2023-07-16T12:31:07;100532.53;;;29.39;33.29
73842;BME280;62184;52.006;5.924;2023-07-16T12:33:33;100539.78;;;29.40;33.16
73842;BME280;62184;52.006;5.924;2023-07-16T12:36:00;100539.59;;;29.42;33.05
73842;BME280;62184;52.006;5.924;2023-07-16T12:38:26;100549.91;;;29.40;33.03
73842;BME280;62184;52.006;5.924;2023-07-16T12:40:52;100544.09;;;29.43;33.15
73842;BME280;62184;52.006;5.924;2023-07-16T12:43:19;100550.81;;;29.48;32.98
73842;BME280;62184;52.006;5.924;2023-07-16T12:45:45;100547.97;;;29.66;33.43
73842;BME280;62184;52.006;5.924;2023-07-16T12:48:14;100540.44;;;29.76;32.77
73842;BME280;62184;52.006;5.924;2023-07-16T12:50:41;100547.81;;;29.68;32.91
73842;BME280;62184;52.006;5.924;2023-07-16T12:53:07;100551.75;;;29.73;33.15